sensor_id;sensor_type;location;lat;lon;timestamp;pressure;altitude;pressure_sealevel;temperature
64600;BMP280;6553;48.412;9.514;2022-08-25T00:02:00;72173.53;;;24.59
64600;BMP280;6553;48.412;9.514;2022-08-25T00:04:27;72169.69;;;24.58
64600;BMP280;6553;48.412;9.514;2022-08-25T00:06:54;72169.69;;;24.58
64600;BMP280;6553;48.412;9.514;2022-08-25T00:09:25;72167.41;;;24.58
64600;BMP280;6553;48.412;9.514;2022-08-25T00:11:53;72163.03;;;24.57
64600;BMP280;6553;48.412;9.514;2022-08-25T00:14:30;72167.56;;;24.56
64600;BMP280;6553;48.412;9.514;2022-08-25T00:16:58;72169.81;;;24.55
64600;BMP280;6553;48.412;9.514;2022-08-25T00:19:29;72168.06;;;24.56
64600;BMP280;6553;48.412;9.514;2022-08-25T00:21:56;72167.03;;;24.55
64600;BMP280;6553;48.412;9.514;2022-08-25T00:24:23;72165.97;;;24.54
64600;BMP280;6553;48.412;9.514;2022-08-25T00:26:53;72170.88;;;24.56
64600;BMP280;6553;48.412;9.514;2022-08-25T00:29:20;72169.28;;;24.55
64600;BMP280;6553;48.412;9.514;2022-08-25T00:31:47;72167.03;;;24.55
64600;BMP280;6553;48.412;9.514;2022-08-25T00:34:20;72164.34;;;24.53
64600;BMP280;6553;48.412;9.514;2022-08-25T00:36:46;72165.97;;;24.54
64600;BMP280;6553;48.412;9.514;2022-08-25T00:39:12;72163.84;;;24.52
64600;BMP280;6553;48.412;9.514;2022-08-25T00:41:41;72168.34;;;24.51
64600;BMP280;6553;48.412;9.514;2022-08-25T00:44:11;72163.16;;;24.54
64600;BMP280;6553;48.412;9.514;2022-08-25T00:46:47;72168.75;;;24.54
64600;BMP280;6553;48.412;9.514;2022-08-25T00:51:51;72163.84;;;24.52
64600;BMP280;6553;48.412;9.514;2022-08-25T00:54:25;72169.41;;;24.52
64600;BMP280;6553;48.412;9.514;2022-08-25T00:56:54;72162.63;;;24.54
64600;BMP280;6553;48.412;9.514;2022-08-25T00:59:22;72157.72;;;24.52
64600;BMP280;6553;48.412;9.514;2022-08-25T01:01:50;72160.50;;;24.52
64600;BMP280;6553;48.412;9.514;2022-08-25T01:04:17;72166.63;;;24.52
64600;BMP280;6553;48.412;9.514;2022-08-25T01:06:44;72158.38;;;24.50
64600;BMP280;6553;48.412;9.514;2022-08-25T01:09:13;72166.63;;;24.52
64600;BMP280;6553;48.412;9.514;2022-08-25T01:11:41;72161.03;;;24.52
64600;BMP280;6553;48.412;9.514;2022-08-25T01:14:10;72157.84;;;24.49
64600;BMP280;6553;48.412;9.514;2022-08-25T01:16:38;72159.56;;;24.48
64600;BMP280;6553;48.412;9.514;2022-08-25T01:19:11;72158.38;;;24.50
64600;BMP280;6553;48.412;9.514;2022-08-25T01:21:52;72161.69;;;24.50
64600;BMP280;6553;48.412;9.514;2022-08-25T01:24:41;72162.75;;;24.51
64600;BMP280;6553;48.412;9.514;2022-08-25T01:27:10;72156.94;;;24.46
64600;BMP280;6553;48.412;9.514;2022-08-25T01:29:37;72160.13;;;24.49
64600;BMP280;6553;48.412;9.514;2022-08-25T01:32:08;72160.66;;;24.49
64600;BMP280;6553;48.412;9.514;2022-08-25T01:34:38;72160.66;;;24.49
64600;BMP280;6553;48.412;9.514;2022-08-25T01:37:06;72156.78;;;24.48
64600;BMP280;6553;48.412;9.514;2022-08-25T01:39:33;72167.28;;;24.50
64600;BMP280;6553;48.412;9.514;2022-08-25T01:44:45;72155.19;;;24.47
64600;BMP280;6553;48.412;9.514;2022-08-25T01:47:12;72158.53;;;24.47
64600;BMP280;6553;48.412;9.514;2022-08-25T01:49:38;72153.44;;;24.48
64600;BMP280;6553;48.412;9.514;2022-08-25T01:52:35;72154.66;;;24.46
64600;BMP280;6553;48.412;9.514;2022-08-25T01:55:03;72157.44;;;24.46
64600;BMP280;6553;48.412;9.514;2022-08-25T01:57:29;72157.44;;;24.46
64600;BMP280;6553;48.412;9.514;2022-08-25T01:59:57;72154.66;;;24.46
64600;BMP280;6553;48.412;9.514;2022-08-25T02:02:23;72155.72;;;24.47
64600;BMP280;6553;48.412;9.514;2022-08-25T02:04:49;72160.78;;;24.47
64600;BMP280;6553;48.412;9.514;2022-08-25T02:07:15;72155.84;;;24.45
64600;BMP280;6553;48.412;9.514;2022-08-25T02:09:41;72156.38;;;24.45
64600;BMP280;6553;48.412;9.514;2022-08-25T02:12:08;72155.84;;;24.45
64600;BMP280;6553;48.412;9.514;2022-08-25T02:14:35;72149.72;;;24.44
64600;BMP280;6553;48.412;9.514;2022-08-25T02:17:03;72154.66;;;24.46
64600;BMP280;6553;48.412;9.514;2022-08-25T02:19:29;72153.59;;;24.45
64600;BMP280;6553;48.412;9.514;2022-08-25T02:21:57;72157.97;;;24.47
64600;BMP280;6553;48.412;9.514;2022-08-25T02:24:23;72159.19;;;24.45
64600;BMP280;6553;48.412;9.514;2022-08-25T02:26:49;72155.31;;;24.44
64600;BMP280;6553;48.412;9.514;2022-08-25T02:29:15;72158.09;;;24.44
64600;BMP280;6553;48.412;9.514;2022-08-25T02:31:42;72158.09;;;24.44
64600;BMP280;6553;48.412;9.514;2022-08-25T02:34:09;72154.78;;;24.44
64600;BMP280;6553;48.412;9.514;2022-08-25T02:36:36;72155.84;;;24.45
64600;BMP280;6553;48.412;9.514;2022-08-25T02:39:06;72153.59;;;24.45
64600;BMP280;6553;48.412;9.514;2022-08-25T02:41:32;72156.13;;;24.40
64600;BMP280;6553;48.412;9.514;2022-08-25T02:44:01;72151.59;;;24.41
64600;BMP280;6553;48.412;9.514;2022-08-25T02:46:28;72151.59;;;24.41
64600;BMP280;6553;48.412;9.514;2022-08-25T02:48:54;72156.66;;;24.40
64600;BMP280;6553;48.412;9.514;2022-08-25T02:51:22;72153.19;;;24.42
64600;BMP280;6553;48.412;9.514;2022-08-25T02:53:49;72152.13;;;24.41
64600;BMP280;6553;48.412;9.514;2022-08-25T02:56:17;72146.53;;;24.41
64600;BMP280;6553;48.412;9.514;2022-08-25T02:58:44;72155.31;;;24.44
64600;BMP280;6553;48.412;9.514;2022-08-25T03:01:10;72153.88;;;24.40
64600;BMP280;6553;48.412;9.514;2022-08-25T03:03:42;72153.88;;;24.40
64600;BMP280;6553;48.412;9.514;2022-08-25T03:06:11;72154.25;;;24.43
64600;BMP280;6553;48.412;9.514;2022-08-25T03:08:39;72154.91;;;24.41
64600;BMP280;6553;48.412;9.514;2022-08-25T03:11:06;72152.66;;;24.42
64600;BMP280;6553;48.412;9.514;2022-08-25T03:13:32;72149.88;;;24.42
64600;BMP280;6553;48.412;9.514;2022-08-25T03:16:00;72153.19;;;24.42
64600;BMP280;6553;48.412;9.514;2022-08-25T03:18:26;72152.13;;;24.41
64600;BMP280;6553;48.412;9.514;2022-08-25T03:20:52;72154.91;;;24.41
64600;BMP280;6553;48.412;9.514;2022-08-25T03:23:19;72150.00;;;24.39
64600;BMP280;6553;48.412;9.514;2022-08-25T03:25:45;72151.59;;;24.41
64600;BMP280;6553;48.412;9.514;2022-08-25T03:28:29;72148.81;;;24.41
64600;BMP280;6553;48.412;9.514;2022-08-25T03:31:01;72151.59;;;24.41
64600;BMP280;6553;48.412;9.514;2022-08-25T03:33:29;72148.81;;;24.41
64600;BMP280;6553;48.412;9.514;2022-08-25T03:35:56;72148.81;;;24.41
64600;BMP280;6553;48.412;9.514;2022-08-25T03:38:23;72144.41;;;24.39
64600;BMP280;6553;48.412;9.514;2022-08-25T03:40:50;72148.28;;;24.40
64600;BMP280;6553;48.412;9.514;2022-08-25T03:43:17;72148.94;;;24.38
64600;BMP280;6553;48.412;9.514;2022-08-25T03:45:45;72151.19;;;24.38
64600;BMP280;6553;48.412;9.514;2022-08-25T03:48:11;72146.16;;;24.38
64600;BMP280;6553;48.412;9.514;2022-08-25T03:50:45;72143.91;;;24.39
64600;BMP280;6553;48.412;9.514;2022-08-25T03:53:11;72147.88;;;24.37
64600;BMP280;6553;48.412;9.514;2022-08-25T03:55:37;72146.16;;;24.38
64600;BMP280;6553;48.412;9.514;2022-08-25T03:58:03;72151.19;;;24.38
64600;BMP280;6553;48.412;9.514;2022-08-25T04:00:28;72146.81;;;24.36
64600;BMP280;6553;48.412;9.514;2022-08-25T04:02:55;72150.53;;;24.40
64600;BMP280;6553;48.412;9.514;2022-08-25T04:05:21;72142.28;;;24.37
64600;BMP280;6553;48.412;9.514;2022-08-25T04:07:47;72145.63;;;24.38
64600;BMP280;6553;48.412;9.514;2022-08-25T04:10:13;72148.94;;;24.38
64600;BMP280;6553;48.412;9.514;2022-08-25T04:12:39;72140.69;;;24.36
64600;BMP280;6553;48.412;9.514;2022-08-25T04:15:07;72144.16;;;24.34
64600;BMP280;6553;48.412;9.514;2022-08-25T04:17:37;72152.41;;;24.36
64600;BMP280;6553;48.412;9.514;2022-08-25T04:20:07;72148.94;;;24.38
64600;BMP280;6553;48.412;9.514;2022-08-25T04:22:34;72143.47;;;24.36
64600;BMP280;6553;48.412;9.514;2022-08-25T04:25:01;72145.75;;;24.35
64600;BMP280;6553;48.412;9.514;2022-08-25T04:27:27;72147.88;;;24.37
64600;BMP280;6553;48.412;9.514;2022-08-25T04:29:53;72145.22;;;24.35
64600;BMP280;6553;48.412;9.514;2022-08-25T04:32:19;72145.75;;;24.35
64600;BMP280;6553;48.412;9.514;2022-08-25T04:34:45;72144.69;;;24.34
64600;BMP280;6553;48.412;9.514;2022-08-25T04:37:11;72145.06;;;24.37
64600;BMP280;6553;48.412;9.514;2022-08-25T04:39:36;72147.34;;;24.37
64600;BMP280;6553;48.412;9.514;2022-08-25T04:42:03;72147.34;;;24.37
64600;BMP280;6553;48.412;9.514;2022-08-25T04:44:29;72142.97;;;24.35
64600;BMP280;6553;48.412;9.514;2022-08-25T04:46:56;72138.03;;;24.33
64600;BMP280;6553;48.412;9.514;2022-08-25T04:49:22;72148.53;;;24.35
64600;BMP280;6553;48.412;9.514;2022-08-25T04:51:48;72145.75;;;24.35
64600;BMP280;6553;48.412;9.514;2022-08-25T04:54:16;72141.91;;;24.34
64600;BMP280;6553;48.412;9.514;2022-08-25T04:56:43;72150.25;;;24.34
64600;BMP280;6553;48.412;9.514;2022-08-25T04:59:12;72144.69;;;24.34
64600;BMP280;6553;48.412;9.514;2022-08-25T05:01:39;72145.75;;;24.35
64600;BMP280;6553;48.412;9.514;2022-08-25T05:04:10;72145.75;;;24.35
64600;BMP280;6553;48.412;9.514;2022-08-25T05:06:36;72141.50;;;24.31
64600;BMP280;6553;48.412;9.514;2022-08-25T05:09:03;72140.97;;;24.31
64600;BMP280;6553;48.412;9.514;2022-08-25T05:11:30;72141.91;;;24.34
64600;BMP280;6553;48.412;9.514;2022-08-25T05:13:57;72143.63;;;24.33
64600;BMP280;6553;48.412;9.514;2022-08-25T05:16:25;72142.56;;;24.32
64600;BMP280;6553;48.412;9.514;2022-08-25T05:18:52;72136.97;;;24.32
64600;BMP280;6553;48.412;9.514;2022-08-25T05:21:23;72143.09;;;24.33
64600;BMP280;6553;48.412;9.514;2022-08-25T05:23:57;72144.69;;;24.34
64600;BMP280;6553;48.412;9.514;2022-08-25T05:26:25;72142.03;;;24.32
64600;BMP280;6553;48.412;9.514;2022-08-25T05:28:53;72141.50;;;24.31
64600;BMP280;6553;48.412;9.514;2022-08-25T05:31:23;72139.25;;;24.32
64600;BMP280;6553;48.412;9.514;2022-08-25T05:33:49;72144.69;;;24.34
64600;BMP280;6553;48.412;9.514;2022-08-25T05:36:17;72149.72;;;24.34
64600;BMP280;6553;48.412;9.514;2022-08-25T05:38:44;72145.22;;;24.35
64600;BMP280;6553;48.412;9.514;2022-08-25T05:41:14;72139.38;;;24.29
64600;BMP280;6553;48.412;9.514;2022-08-25T05:43:42;72138.44;;;24.26
64600;BMP280;6553;48.412;9.514;2022-08-25T05:46:09;72125.41;;;24.19
64600;BMP280;6553;48.412;9.514;2022-08-25T05:48:36;72119.56;;;24.13
64600;BMP280;6553;48.412;9.514;2022-08-25T05:51:05;72124.63;;;24.13
64600;BMP280;6553;48.412;9.514;2022-08-25T05:53:31;72121.28;;;24.12
64600;BMP280;6553;48.412;9.514;2022-08-25T05:55:59;72119.56;;;24.13
64600;BMP280;6553;48.412;9.514;2022-08-25T05:58:27;72123.00;;;24.11
64600;BMP280;6553;48.412;9.514;2022-08-25T06:00:55;72115.84;;;24.10
64600;BMP280;6553;48.412;9.514;2022-08-25T06:03:21;72120.75;;;24.12
64600;BMP280;6553;48.412;9.514;2022-08-25T06:05:47;72119.56;;;24.13
64600;BMP280;6553;48.412;9.514;2022-08-25T06:08:14;72120.22;;;24.11
64600;BMP280;6553;48.412;9.514;2022-08-25T06:10:41;72120.75;;;24.12
64600;BMP280;6553;48.412;9.514;2022-08-25T06:13:07;72119.69;;;24.11
64600;BMP280;6553;48.412;9.514;2022-08-25T06:15:33;72116.50;;;24.08
64600;BMP280;6553;48.412;9.514;2022-08-25T06:17:59;72119.69;;;24.11
64600;BMP280;6553;48.412;9.514;2022-08-25T06:20:29;72118.63;;;24.10
64600;BMP280;6553;48.412;9.514;2022-08-25T06:22:57;72121.28;;;24.12
64600;BMP280;6553;48.412;9.514;2022-08-25T06:25:25;72116.38;;;24.10
64600;BMP280;6553;48.412;9.514;2022-08-25T06:27:53;72121.28;;;24.12
64600;BMP280;6553;48.412;9.514;2022-08-25T06:30:22;72122.88;;;24.14
64600;BMP280;6553;48.412;9.514;2022-08-25T06:32:48;72117.84;;;24.14
64600;BMP280;6553;48.412;9.514;2022-08-25T06:35:17;72127.16;;;24.18
64600;BMP280;6553;48.412;9.514;2022-08-25T06:37:44;72129.78;;;24.20
64600;BMP280;6553;48.412;9.514;2022-08-25T06:40:11;72127.53;;;24.21
64600;BMP280;6553;48.412;9.514;2022-08-25T06:42:38;72132.47;;;24.23
64600;BMP280;6553;48.412;9.514;2022-08-25T06:45:07;72128.06;;;24.21
64600;BMP280;6553;48.412;9.514;2022-08-25T06:47:33;72131.38;;;24.22
64600;BMP280;6553;48.412;9.514;2022-08-25T06:49:59;72139.09;;;24.24
64600;BMP280;6553;48.412;9.514;2022-08-25T06:52:25;72136.84;;;24.24
64600;BMP280;6553;48.412;9.514;2022-08-25T06:54:50;72140.69;;;24.25
64600;BMP280;6553;48.412;9.514;2022-08-25T06:57:17;72132.72;;;24.28
64600;BMP280;6553;48.412;9.514;2022-08-25T06:59:43;72141.09;;;24.28
64600;BMP280;6553;48.412;9.514;2022-08-25T07:02:09;72144.41;;;24.29
64600;BMP280;6553;48.412;9.514;2022-08-25T07:04:35;72146.53;;;24.31
64600;BMP280;6553;48.412;9.514;2022-08-25T07:07:03;72141.91;;;24.34
64600;BMP280;6553;48.412;9.514;2022-08-25T07:09:29;72148.00;;;24.35
64600;BMP280;6553;48.412;9.514;2022-08-25T07:11:55;72147.88;;;24.37
64600;BMP280;6553;48.412;9.514;2022-08-25T07:14:21;72151.06;;;24.40
64600;BMP280;6553;48.412;9.514;2022-08-25T07:16:47;72161.31;;;24.47
64600;BMP280;6553;48.412;9.514;2022-08-25T07:19:13;72161.31;;;24.47
64600;BMP280;6553;48.412;9.514;2022-08-25T07:21:41;72156.00;;;24.42
64600;BMP280;6553;48.412;9.514;2022-08-25T07:24:13;72154.91;;;24.41
64600;BMP280;6553;48.412;9.514;2022-08-25T07:26:41;72159.84;;;24.43
64600;BMP280;6553;48.412;9.514;2022-08-25T07:29:16;72158.25;;;24.42
64600;BMP280;6553;48.412;9.514;2022-08-25T07:31:42;72154.38;;;24.41
64600;BMP280;6553;48.412;9.514;2022-08-25T07:34:09;72150.53;;;24.40
64600;BMP280;6553;48.412;9.514;2022-08-25T07:36:54;72161.56;;;24.42
64600;BMP280;6553;48.412;9.514;2022-08-25T07:39:21;72156.38;;;24.45
64600;BMP280;6553;48.412;9.514;2022-08-25T07:41:47;72157.44;;;24.46
64600;BMP280;6553;48.412;9.514;2022-08-25T07:44:13;72156.38;;;24.45
64600;BMP280;6553;48.412;9.514;2022-08-25T07:46:39;72153.72;;;24.43
64600;BMP280;6553;48.412;9.514;2022-08-25T07:49:06;72153.59;;;24.45
64600;BMP280;6553;48.412;9.514;2022-08-25T07:51:32;72160.66;;;24.49
64600;BMP280;6553;48.412;9.514;2022-08-25T07:53:59;72165.44;;;24.54
64600;BMP280;6553;48.412;9.514;2022-08-25T07:56:24;72164.22;;;24.55
64600;BMP280;6553;48.412;9.514;2022-08-25T07:58:50;72168.50;;;24.59
64600;BMP280;6553;48.412;9.514;2022-08-25T08:01:21;72174.47;;;24.62
64600;BMP280;6553;48.412;9.514;2022-08-25T08:03:48;72179.94;;;24.65
64600;BMP280;6553;48.412;9.514;2022-08-25T08:06:17;72179.94;;;24.65
64600;BMP280;6553;48.412;9.514;2022-08-25T08:08:46;72181.50;;;24.66
64600;BMP280;6553;48.412;9.514;2022-08-25T08:11:30;72178.31;;;24.63
64600;BMP280;6553;48.412;9.514;2022-08-25T08:14:00;72178.31;;;24.63
64600;BMP280;6553;48.412;9.514;2022-08-25T08:16:28;72172.06;;;24.65
64600;BMP280;6553;48.412;9.514;2022-08-25T08:18:56;72174.47;;;24.62
64600;BMP280;6553;48.412;9.514;2022-08-25T08:21:30;72175.13;;;24.60
64600;BMP280;6553;48.412;9.514;2022-08-25T08:23:57;72166.22;;;24.60
64600;BMP280;6553;48.412;9.514;2022-08-25T08:26:24;72174.59;;;24.60
64600;BMP280;6553;48.412;9.514;2022-08-25T08:28:50;72166.22;;;24.60
64600;BMP280;6553;48.412;9.514;2022-08-25T08:31:23;72173.94;;;24.62
64600;BMP280;6553;48.412;9.514;2022-08-25T08:33:53;72176.59;;;24.64
64600;BMP280;6553;48.412;9.514;2022-08-25T08:36:21;72176.59;;;24.64
64600;BMP280;6553;48.412;9.514;2022-08-25T08:38:47;72184.31;;;24.66
64600;BMP280;6553;48.412;9.514;2022-08-25T08:53:26;72187.34;;;24.72
64600;BMP280;6553;48.412;9.514;2022-08-25T08:55:59;72189.09;;;24.71
64600;BMP280;6553;48.412;9.514;2022-08-25T09:01:48;72184.03;;;24.71
64600;BMP280;6553;48.412;9.514;2022-08-25T09:04:47;72181.75;;;24.72
64600;BMP280;6553;48.412;9.514;2022-08-25T09:07:21;72182.84;;;24.73
64600;BMP280;6553;48.412;9.514;2022-08-25T09:09:48;72186.84;;;24.71
64600;BMP280;6553;48.412;9.514;2022-08-25T09:12:36;72186.28;;;24.71
64600;BMP280;6553;48.412;9.514;2022-08-25T09:18:42;72185.75;;;24.70
64600;BMP280;6553;48.412;9.514;2022-08-25T09:21:56;72177.38;;;24.70
64600;BMP280;6553;48.412;9.514;2022-08-25T09:25:01;72187.88;;;24.72
64600;BMP280;6553;48.412;9.514;2022-08-25T09:31:01;72180.59;;;24.73
64600;BMP280;6553;48.412;9.514;2022-08-25T09:33:30;72183.50;;;24.71
64600;BMP280;6553;48.412;9.514;2022-08-25T09:35:57;72183.50;;;24.71
64600;BMP280;6553;48.412;9.514;2022-08-25T09:38:25;72185.25;;;24.70
64600;BMP280;6553;48.412;9.514;2022-08-25T09:40:55;72178.59;;;24.69
64600;BMP280;6553;48.412;9.514;2022-08-25T09:43:28;72185.75;;;24.70
64600;BMP280;6553;48.412;9.514;2022-08-25T09:46:12;72182.56;;;24.67
64600;BMP280;6553;48.412;9.514;2022-08-25T09:48:52;72182.97;;;24.70
64600;BMP280;6553;48.412;9.514;2022-08-25T09:51:30;72179.13;;;24.69
64600;BMP280;6553;48.412;9.514;2022-08-25T09:54:05;72179.25;;;24.67
64600;BMP280;6553;48.412;9.514;2022-08-25T09:56:59;72185.75;;;24.70
64600;BMP280;6553;48.412;9.514;2022-08-25T09:59:35;72186.28;;;24.71
64600;BMP280;6553;48.412;9.514;2022-08-25T10:02:22;72179.13;;;24.69
64600;BMP280;6553;48.412;9.514;2022-08-25T10:04:50;72182.44;;;24.70
64600;BMP280;6553;48.412;9.514;2022-08-25T10:07:38;72182.44;;;24.70
64600;BMP280;6553;48.412;9.514;2022-08-25T10:10:27;72185.09;;;24.72
64600;BMP280;6553;48.412;9.514;2022-08-25T10:12:54;72184.03;;;24.71
64600;BMP280;6553;48.412;9.514;2022-08-25T10:15:36;72188.03;;;24.70
64600;BMP280;6553;48.412;9.514;2022-08-25T10:18:21;72181.91;;;24.69
64600;BMP280;6553;48.412;9.514;2022-08-25T10:21:07;72185.25;;;24.70
64600;BMP280;6553;48.412;9.514;2022-08-25T10:23:39;72181.25;;;24.71
64600;BMP280;6553;48.412;9.514;2022-08-25T10:26:22;72184.56;;;24.72
64600;BMP280;6553;48.412;9.514;2022-08-25T10:29:11;72179.50;;;24.72
64600;BMP280;6553;48.412;9.514;2022-08-25T10:32:37;72189.09;;;24.71
64600;BMP280;6553;48.412;9.514;2022-08-25T10:35:14;72187.88;;;24.72
64600;BMP280;6553;48.412;9.514;2022-08-25T10:40:53;72187.22;;;24.74
64600;BMP280;6553;48.412;9.514;2022-08-25T10:43:48;72178.97;;;24.72
64600;BMP280;6553;48.412;9.514;2022-08-25T10:46:38;72186.28;;;24.71
64600;BMP280;6553;48.412;9.514;2022-08-25T10:49:18;72184.56;;;24.72
64600;BMP280;6553;48.412;9.514;2022-08-25T10:52:11;72189.47;;;24.74
64600;BMP280;6553;48.412;9.514;2022-08-25T10:54:57;72188.97;;;24.73
64600;BMP280;6553;48.412;9.514;2022-08-25T10:57:33;72187.22;;;24.74
64600;BMP280;6553;48.412;9.514;2022-08-25T11:00:17;72184.44;;;24.74
64600;BMP280;6553;48.412;9.514;2022-08-25T11:03:20;72186.84;;;24.71
64600;BMP280;6553;48.412;9.514;2022-08-25T11:06:02;72185.09;;;24.72
64600;BMP280;6553;48.412;9.514;2022-08-25T11:08:39;72191.06;;;24.75
64600;BMP280;6553;48.412;9.514;2022-08-25T11:11:30;72183.38;;;24.73
64600;BMP280;6553;48.412;9.514;2022-08-25T11:14:02;72180.06;;;24.73
64600;BMP280;6553;48.412;9.514;2022-08-25T11:16:40;72186.16;;;24.73
64600;BMP280;6553;48.412;9.514;2022-08-25T11:19:21;72185.63;;;24.73
64600;BMP280;6553;48.412;9.514;2022-08-25T11:22:11;72186.16;;;24.73
64600;BMP280;6553;48.412;9.514;2022-08-25T11:30:30;72189.91;;;24.77
64600;BMP280;6553;48.412;9.514;2022-08-25T11:32:56;72186.56;;;24.76
64600;BMP280;6553;48.412;9.514;2022-08-25T11:35:40;72186.56;;;24.76
64600;BMP280;6553;48.412;9.514;2022-08-25T11:47:42;72186.03;;;24.76
64600;BMP280;6553;48.412;9.514;2022-08-25T11:50:54;72189.34;;;24.76
64600;BMP280;6553;48.412;9.514;2022-08-25T11:53:38;72193.19;;;24.77
64600;BMP280;6553;48.412;9.514;2022-08-25T11:56:31;72192.16;;;24.76
64600;BMP280;6553;48.412;9.514;2022-08-25T11:58:57;72190.41;;;24.77
64600;BMP280;6553;48.412;9.514;2022-08-25T12:04:38;72192.16;;;24.76
64600;BMP280;6553;48.412;9.514;2022-08-25T12:18:11;72192.53;;;24.79
64600;BMP280;6553;48.412;9.514;2022-08-25T12:35:31;72203.59;;;24.82
64600;BMP280;6553;48.412;9.514;2022-08-25T12:38:15;72200.25;;;24.82
64600;BMP280;6553;48.412;9.514;2022-08-25T12:43:26;72194.69;;;24.82
64600;BMP280;6553;48.412;9.514;2022-08-25T12:51:51;72195.06;;;24.85
64600;BMP280;6553;48.412;9.514;2022-08-25T12:54:38;72202.25;;;24.86
64600;BMP280;6553;48.412;9.514;2022-08-25T12:59:58;72195.59;;;24.85
64600;BMP280;6553;48.412;9.514;2022-08-25T13:11:18;72201.72;;;24.86
64600;BMP280;6553;48.412;9.514;2022-08-25T13:14:02;72202.78;;;24.87
64600;BMP280;6553;48.412;9.514;2022-08-25T13:16:29;72207.72;;;24.89
64600;BMP280;6553;48.412;9.514;2022-08-25T13:18:57;72203.31;;;24.87
64600;BMP280;6553;48.412;9.514;2022-08-25T13:21:38;72201.72;;;24.86
64600;BMP280;6553;48.412;9.514;2022-08-25T13:24:31;72203.31;;;24.87
64600;BMP280;6553;48.412;9.514;2022-08-25T13:27:05;72199.31;;;24.89
64600;BMP280;6553;48.412;9.514;2022-08-25T13:29:49;72208.75;;;24.90
64600;BMP280;6553;48.412;9.514;2022-08-25T13:32:27;72198.91;;;24.86
64600;BMP280;6553;48.412;9.514;2022-08-25T13:35:14;72200.66;;;24.85
64600;BMP280;6553;48.412;9.514;2022-08-25T13:37:40;72203.31;;;24.87
64600;BMP280;6553;48.412;9.514;2022-08-25T13:42:58;72207.72;;;24.89
64600;BMP280;6553;48.412;9.514;2022-08-25T13:45:27;72200.91;;;24.90
64600;BMP280;6553;48.412;9.514;2022-08-25T13:47:55;72203.19;;;24.90
64600;BMP280;6553;48.412;9.514;2022-08-25T13:50:27;72201.47;;;24.91
64600;BMP280;6553;48.412;9.514;2022-08-25T13:53:14;72204.78;;;24.91
64600;BMP280;6553;48.412;9.514;2022-08-25T13:58:17;72197.75;;;24.87
64600;BMP280;6553;48.412;9.514;2022-08-25T14:01:00;72203.72;;;24.90
64600;BMP280;6553;48.412;9.514;2022-08-25T14:03:31;72204.25;;;24.91
64600;BMP280;6553;48.412;9.514;2022-08-25T14:06:26;72202.63;;;24.89
64600;BMP280;6553;48.412;9.514;2022-08-25T14:17:13;72207.03;;;24.91
64600;BMP280;6553;48.412;9.514;2022-08-25T14:19:45;72202.63;;;24.89
64600;BMP280;6553;48.412;9.514;2022-08-25T14:22:12;72206.50;;;24.90
64600;BMP280;6553;48.412;9.514;2022-08-25T14:24:39;72205.97;;;24.90
64600;BMP280;6553;48.412;9.514;2022-08-25T14:27:05;72206.50;;;24.90
64600;BMP280;6553;48.412;9.514;2022-08-25T14:29:31;72214.88;;;25.01
64600;BMP280;6553;48.412;9.514;2022-08-25T14:31:58;72213.56;;;24.94
64600;BMP280;6553;48.412;9.514;2022-08-25T14:34:31;72211.94;;;24.93
64600;BMP280;6553;48.412;9.514;2022-08-25T14:36:58;72205.31;;;24.92
64600;BMP280;6553;48.412;9.514;2022-08-25T14:39:27;72206.66;;;24.88
64600;BMP280;6553;48.412;9.514;2022-08-25T14:41:53;72203.19;;;24.90
64600;BMP280;6553;48.412;9.514;2022-08-25T14:44:20;72198.91;;;24.86
64600;BMP280;6553;48.412;9.514;2022-08-25T14:46:54;72194.41;;;24.87
64600;BMP280;6553;48.412;9.514;2022-08-25T14:49:25;72205.44;;;24.89
64600;BMP280;6553;48.412;9.514;2022-08-25T14:51:56;72201.59;;;24.88
64600;BMP280;6553;48.412;9.514;2022-08-25T14:54:26;72205.44;;;24.89
64600;BMP280;6553;48.412;9.514;2022-08-25T14:56:52;72205.56;;;24.87
64600;BMP280;6553;48.412;9.514;2022-08-25T14:59:18;72203.72;;;24.90
64600;BMP280;6553;48.412;9.514;2022-08-25T15:01:45;72204.38;;;24.88
64600;BMP280;6553;48.412;9.514;2022-08-25T15:04:22;72208.75;;;24.90
64600;BMP280;6553;48.412;9.514;2022-08-25T15:06:58;72204.91;;;24.89
64600;BMP280;6553;48.412;9.514;2022-08-25T15:09:25;72201.47;;;24.91
64600;BMP280;6553;48.412;9.514;2022-08-25T15:11:54;72204.25;;;24.91
64600;BMP280;6553;48.412;9.514;2022-08-25T15:14:23;72201.72;;;24.86
64600;BMP280;6553;48.412;9.514;2022-08-25T15:16:55;72204.25;;;24.91
64600;BMP280;6553;48.412;9.514;2022-08-25T15:19:24;72205.97;;;24.90
64600;BMP280;6553;48.412;9.514;2022-08-25T15:21:52;72205.31;;;24.92
64600;BMP280;6553;48.412;9.514;2022-08-25T15:24:20;72201.59;;;24.88
64600;BMP280;6553;48.412;9.514;2022-08-25T15:26:57;72201.59;;;24.88
64600;BMP280;6553;48.412;9.514;2022-08-25T15:29:25;72204.38;;;24.88
64600;BMP280;6553;48.412;9.514;2022-08-25T15:31:52;72201.06;;;24.88
64600;BMP280;6553;48.412;9.514;2022-08-25T15:34:18;72200.00;;;24.87
64600;BMP280;6553;48.412;9.514;2022-08-25T15:36:45;72201.59;;;24.88
64600;BMP280;6553;48.412;9.514;2022-08-25T15:39:12;72198.66;;;24.91
64600;BMP280;6553;48.412;9.514;2022-08-25T15:41:38;72209.28;;;24.90
64600;BMP280;6553;48.412;9.514;2022-08-25T15:44:06;72202.00;;;24.91
64600;BMP280;6553;48.412;9.514;2022-08-25T15:46:35;72200.38;;;24.90
64600;BMP280;6553;48.412;9.514;2022-08-25T15:49:02;72201.47;;;24.91
64600;BMP280;6553;48.412;9.514;2022-08-25T15:51:28;72208.63;;;24.92
64600;BMP280;6553;48.412;9.514;2022-08-25T15:53:55;72199.31;;;24.89
64600;BMP280;6553;48.412;9.514;2022-08-25T15:56:22;72206.50;;;24.90
64600;BMP280;6553;48.412;9.514;2022-08-25T15:58:49;72210.88;;;24.92
64600;BMP280;6553;48.412;9.514;2022-08-25T16:01:19;72210.88;;;24.92
64600;BMP280;6553;48.412;9.514;2022-08-25T16:03:47;72202.63;;;24.89
64600;BMP280;6553;48.412;9.514;2022-08-25T16:06:12;72204.91;;;24.89
64600;BMP280;6553;48.412;9.514;2022-08-25T16:08:39;72198.78;;;24.88
64600;BMP280;6553;48.412;9.514;2022-08-25T16:11:05;72209.84;;;24.91
64600;BMP280;6553;48.412;9.514;2022-08-25T16:13:40;72201.59;;;24.88
64600;BMP280;6553;48.412;9.514;2022-08-25T16:16:05;72205.97;;;24.90
64600;BMP280;6553;48.412;9.514;2022-08-25T16:18:31;72200.53;;;24.87
64600;BMP280;6553;48.412;9.514;2022-08-25T16:20:57;72199.31;;;24.89
64600;BMP280;6553;48.412;9.514;2022-08-25T16:23:23;72202.13;;;24.89
64600;BMP280;6553;48.412;9.514;2022-08-25T16:25:48;72205.97;;;24.90
64600;BMP280;6553;48.412;9.514;2022-08-25T16:28:16;72203.72;;;24.90
64600;BMP280;6553;48.412;9.514;2022-08-25T16:30:47;72205.84;;;24.92
64600;BMP280;6553;48.412;9.514;2022-08-25T16:33:15;72201.47;;;24.91